Time;durP1;ratioP1;P1;durP2;ratioP2;P2;SDS_P1;SDS_P2;PMS_P1;PMS_P2;Temp;Humidity;BMP_temperature;BMP_pressure;BME280_temperature;BME280_humidity;BME280_pressure;Samples;Min_cycle;Max_cycle;Signal;HPM_P1;HPM_P2
2022/11/07 00:02:13;;;;;;;5.17;3.80;;;;;;;3.90;78.96;101552.31;31991062;27;21400;-77
2022/11/07 00:17:17;;;;;;;10.07;3.93;;;;;;;4.09;78.31;101546.34;31997685;27;20095;-75
2022/11/07 00:32:20;;;;;;;6.73;3.97;;;;;;;4.03;77.75;101540.41;31989860;27;20043;-74
2022/11/07 00:47:22;;;;;;;5.73;4.00;;;;;;;3.97;78.39;101530.25;31991196;27;20428;-76
2022/11/07 01:02:24;;;;;;;5.57;4.00;;;;;;;4.31;77.62;101502.84;32000542;27;20096;-75
2022/11/07 01:17:27;;;;;;;5.50;3.80;;;;;;;4.39;75.21;101496.53;32000466;27;20059;-75
2022/11/07 01:32:28;;;;;;;7.67;4.17;;;;;;;4.44;75.17;101480.16;32011541;27;20043;-76
2022/11/07 01:47:36;;;;;;;11.77;6.23;;;;;;;4.52;74.58;101474.97;31997192;27;20043;-77
2022/11/07 02:02:39;;;;;;;11.37;6.40;;;;;;;4.52;75.02;101466.88;31996884;27;20070;-75
2022/11/07 02:17:41;;;;;;;11.00;4.83;;;;;;;4.54;74.45;101453.88;32003746;27;20050;-75
2022/11/07 02:32:43;;;;;;;6.03;4.20;;;;;;;4.51;74.87;101452.66;32016037;27;20046;-75
2022/11/07 02:47:45;;;;;;;10.00;4.67;;;;;;;4.41;75.80;101445.91;32010271;27;20055;-76
2022/11/07 03:02:47;;;;;;;8.40;3.97;;;;;;;4.34;76.17;101434.94;32007652;27;20055;-75
2022/11/07 03:17:49;;;;;;;5.60;3.70;;;;;;;4.43;76.29;101430.19;32000912;27;20051;-76
2022/11/07 03:32:52;;;;;;;6.33;3.80;;;;;;;4.39;76.15;101423.16;31999183;27;20079;-74
2022/11/07 03:47:54;;;;;;;5.87;3.43;;;;;;;4.48;76.24;101420.31;31993521;27;20099;-75
2022/11/07 04:02:56;;;;;;;5.13;3.37;;;;;;;4.33;77.49;101409.19;31990344;27;20108;-77
2022/11/07 04:17:59;;;;;;;4.57;2.70;;;;;;;4.35;77.12;101406.16;31994188;27;20415;-76
2022/11/07 04:33:02;;;;;;;4.00;3.47;;;;;;;4.32;77.66;101399.56;31992578;27;20054;-76
2022/11/07 04:48:04;;;;;;;6.90;2.80;;;;;;;4.29;78.10;101423.66;31988399;27;20050;-77
2022/11/07 05:03:08;;;;;;;3.70;2.80;;;;;;;4.35;77.08;101423.06;31987566;27;20062;-76
2022/11/07 05:18:10;;;;;;;3.50;2.47;;;;;;;4.53;77.01;101431.59;31993023;27;20051;-76
2022/11/07 05:33:14;;;;;;;3.90;2.63;;;;;;;4.53;76.84;101434.28;31990560;27;20049;-76
2022/11/07 05:48:17;;;;;;;3.60;2.70;;;;;;;4.52;77.46;101440.00;31979220;27;20540;-76
2022/11/07 06:03:21;;;;;;;4.30;2.53;;;;;;;4.58;77.32;101435.94;31983006;27;20107;-78
2022/11/07 06:18:23;;;;;;;6.63;2.90;;;;;;;4.75;76.87;101440.97;32018100;27;20408;-76
2022/11/07 06:33:25;;;;;;;3.87;2.77;;;;;;;4.79;76.67;101434.56;32009780;27;20492;-76
2022/11/07 06:48:27;;;;;;;4.57;2.87;;;;;;;5.03;75.94;101419.38;31998153;27;20055;-76
2022/11/07 07:03:30;;;;;;;4.50;2.40;;;;;;;5.28;75.55;101415.34;32000290;27;20069;-76
2022/11/07 07:18:32;;;;;;;3.60;2.50;;;;;;;5.08;75.57;101390.28;32011921;27;20073;-76
2022/11/07 07:33:34;;;;;;;8.37;2.50;;;;;;;5.14;75.58;101382.75;32001688;27;20046;-75
2022/11/07 07:48:36;;;;;;;8.47;2.87;;;;;;;5.44;73.96;101383.00;31964371;27;20051;-76
2022/11/07 08:03:38;;;;;;;3.07;2.20;;;;;;;5.87;72.90;101371.22;32005882;27;20050;-75
2022/11/07 08:19:00;;;;;;;6.60;3.83;;;;;;;6.10;71.32;101371.28;31988463;27;20057;-78
2022/11/07 08:34:03;;;;;;;6.17;3.33;;;;;;;7.17;66.45;101354.94;32000391;27;20050;-78
2022/11/07 08:49:05;;;;;;;7.47;3.57;;;;;;;7.90;62.98;101334.59;31998122;27;20050;-77
2022/11/07 09:04:07;;;;;;;9.17;4.73;;;;;;;10.66;54.04;101315.56;32002984;27;20058;-76
2022/11/07 09:19:09;;;;;;;10.30;4.57;;;;;;;12.31;48.95;101306.34;31990073;27;20568;-76
2022/11/07 09:34:11;;;;;;;15.47;8.13;;;;;;;13.50;45.33;101296.59;31978989;27;20462;-76
2022/11/07 09:49:41;;;;;;;18.17;8.80;;;;;;;14.74;42.33;101288.50;31985287;27;20051;-77
2022/11/07 10:04:46;;;;;;;6.20;4.10;;;;;;;14.96;41.46;101278.72;32009807;27;20146;-75
2022/11/07 10:20:06;;;;;;;11.77;4.87;;;;;;;15.33;39.40;101272.91;31994743;27;20377;-78
2022/11/07 10:35:11;;;;;;;10.00;4.70;;;;;;;15.41;40.48;101253.59;32005018;27;20133;-77
2022/11/07 10:50:19;;;;;;;9.10;4.77;;;;;;;16.11;38.55;101242.25;32013847;27;20079;-77
2022/11/07 11:05:30;;;;;;;8.57;4.53;;;;;;;16.22;38.18;101229.06;32004760;27;20871;-76
2022/11/07 11:20:39;;;;;;;5.40;3.43;;;;;;;15.69;38.93;101209.97;31997910;27;20042;-76
2022/11/07 11:35:46;;;;;;;7.47;3.83;;;;;;;16.49;37.12;101199.41;31989470;27;20058;-78
2022/11/07 11:51:01;;;;;;;5.87;3.63;;;;;;;17.79;35.17;101198.75;31997519;27;20103;-76
2022/11/07 12:06:18;;;;;;;6.43;3.30;;;;;;;18.41;36.01;101193.56;32004507;27;20481;-76
2022/11/07 12:21:39;;;;;;;7.43;4.10;;;;;;;14.96;39.28;101191.22;31998647;27;20047;-76
2022/11/07 12:36:56;;;;;;;6.83;3.50;;;;;;;12.06;46.39;101175.09;31993163;27;20047;-76
2022/11/07 12:52:35;;;;;;;29.33;14.67;;;;;;;11.24;50.40;101170.22;31994436;27;20414;-76
2022/11/07 13:07:49;;;;;;;6.90;3.40;;;;;;;10.95;51.49;101158.72;31984108;27;20107;-76
2022/11/07 13:22:58;;;;;;;8.47;3.50;;;;;;;10.57;52.30;101150.34;31966431;27;20103;-75
2022/11/07 13:38:22;;;;;;;5.53;2.77;;;;;;;10.31;52.68;101150.78;31980994;27;20054;-75
2022/11/07 13:53:36;;;;;;;7.93;3.83;;;;;;;10.01;53.83;101140.31;31973225;27;20157;-77
2022/11/07 14:08:43;;;;;;;5.33;3.00;;;;;;;9.66;54.50;101124.06;31986542;27;20047;-75
2022/11/07 14:23:45;;;;;;;4.87;2.73;;;;;;;9.43;55.23;101122.50;31990906;27;20047;-77
2022/11/07 14:38:53;;;;;;;6.03;2.90;;;;;;;9.33;56.29;101107.00;32007855;27;20387;-75
2022/11/07 14:54:05;;;;;;;5.13;3.37;;;;;;;9.17;56.70;101104.66;32013447;27;20473;-77
2022/11/07 15:09:10;;;;;;;9.93;4.03;;;;;;;9.01;57.52;101123.16;32013935;27;20492;-77
2022/11/07 15:24:30;;;;;;;12.97;5.30;;;;;;;8.86;58.17;101124.28;31999491;27;20107;-77
2022/11/07 15:39:32;;;;;;;14.50;4.97;;;;;;;8.63;59.41;101115.69;31994681;27;20047;-78
2022/11/07 15:54:34;;;;;;;10.13;5.70;;;;;;;8.35;60.23;101114.38;31965871;27;20097;-77
2022/11/07 16:09:36;;;;;;;14.53;6.20;;;;;;;8.22;61.84;101118.53;32007331;27;20079;-77
2022/11/07 16:24:38;;;;;;;15.07;8.47;;;;;;;8.13;62.31;101120.78;31993920;27;20422;-77
2022/11/07 16:39:41;;;;;;;12.50;6.07;;;;;;;7.82;64.04;101120.19;32001958;27;20046;-77
2022/11/07 16:54:44;;;;;;;22.77;9.60;;;;;;;7.45;66.18;101106.75;31994171;27;20058;-77
2022/11/07 17:09:46;;;;;;;18.40;8.50;;;;;;;7.28;67.80;101106.59;32001247;27;20054;-77
2022/11/07 17:24:48;;;;;;;25.13;10.77;;;;;;;7.02;67.81;101089.38;31988690;27;20403;-75
2022/11/07 17:39:51;;;;;;;13.10;5.77;;;;;;;6.53;69.61;101100.34;31978774;27;20087;-77
2022/11/07 17:54:53;;;;;;;11.73;5.03;;;;;;;6.20;70.47;101102.97;31986588;27;20050;-77
2022/11/07 18:10:00;;;;;;;8.67;4.47;;;;;;;5.89;70.44;101090.63;31990633;27;20063;-76
2022/11/07 18:25:07;;;;;;;11.60;5.47;;;;;;;5.59;73.40;101112.81;32055116;27;20054;-76
2022/11/07 18:40:10;;;;;;;16.27;6.80;;;;;;;5.48;73.09;101103.75;32033785;27;20051;-77
2022/11/07 18:55:12;;;;;;;12.87;7.00;;;;;;;5.45;74.22;101107.94;32015166;27;20058;-77
2022/11/07 19:10:18;;;;;;;14.53;6.70;;;;;;;5.35;75.32;101118.56;32017422;27;20055;-78
2022/11/07 19:25:20;;;;;;;14.88;5.45;;;;;;;5.27;75.81;101108.78;31999166;27;20063;-78
2022/11/07 19:40:23;;;;;;;8.87;5.50;;;;;;;5.17;78.36;101125.53;31992293;27;20054;-79
2022/11/07 19:55:24;;;;;;;10.80;5.53;;;;;;;5.10;78.06;101135.03;31996824;27;20050;-77
2022/11/07 20:10:27;;;;;;;17.23;7.23;;;;;;;4.89;80.95;101129.25;32050552;27;20091;-76
2022/11/07 20:25:29;;;;;;;13.17;6.67;;;;;;;4.62;80.34;101125.63;32035488;27;20555;-76
2022/11/07 20:40:31;;;;;;;9.60;5.33;;;;;;;4.45;80.39;101137.56;31999705;27;20043;-75
2022/11/07 20:55:42;;;;;;;9.20;5.17;;;;;;;4.39;82.18;101140.88;32045481;27;20054;-77
2022/11/07 21:10:49;;;;;;;13.27;4.77;;;;;;;4.27;81.76;101124.84;31985416;27;20062;-75
2022/11/07 21:25:51;;;;;;;10.83;5.10;;;;;;;4.28;82.09;101121.78;31962288;27;20043;-76
2022/11/07 21:40:53;;;;;;;12.47;5.47;;;;;;;4.25;82.99;101122.50;31972053;27;20054;-77
2022/11/07 21:55:59;;;;;;;12.03;6.07;;;;;;;4.33;83.25;101129.59;31995574;27;20058;-76
2022/11/07 22:11:01;;;;;;;20.83;7.70;;;;;;;4.36;82.25;101141.56;32006745;27;20505;-76
2022/11/07 22:26:14;;;;;;;18.33;8.53;;;;;;;4.44;82.53;101141.38;31987861;27;20298;-77
2022/11/07 22:41:21;;;;;;;27.07;9.53;;;;;;;4.38;82.48;101142.00;31995642;27;20051;-76
2022/11/07 22:56:24;;;;;;;20.40;9.23;;;;;;;4.39;82.93;101143.56;32003689;27;20062;-76
2022/11/07 23:11:31;;;;;;;29.33;9.87;;;;;;;4.33;82.34;101128.81;31980370;27;20111;-76
2022/11/07 23:26:49;;;;;;;29.33;12.17;;;;;;;4.08;84.20;101122.88;32008790;27;20055;-75
2022/11/07 23:41:51;;;;;;;27.97;11.60;;;;;;;3.75;86.51;101121.38;31959784;27;20047;-75
2022/11/07 23:56:53;;;;;;;31.53;12.77;;;;;;;3.63;87.38;101121.44;31979089;27;20465;-76
